createdAt,value
2023-04-28T00:02:08.819Z,99686.13
2023-04-28T00:04:38.646Z,99696.63
2023-04-28T00:07:08.462Z,99688.03
2023-04-28T00:09:38.257Z,99688.28
2023-04-28T00:12:10.698Z,99683.66
2023-04-28T00:14:40.740Z,99680.03
2023-04-28T00:17:10.857Z,99674.56
2023-04-28T00:19:40.634Z,99671.94
2023-04-28T00:22:10.288Z,99665.78
2023-04-28T00:24:41.987Z,99669.91
2023-04-28T00:27:14.281Z,99655.06
2023-04-28T00:29:43.984Z,99662.34
2023-04-28T00:32:14.032Z,99653.31
2023-04-28T00:34:43.808Z,99646.91
2023-04-28T00:37:13.545Z,99645.72
2023-04-28T00:39:47.271Z,99649.69
2023-04-28T00:42:19.547Z,99654.09
2023-04-28T00:44:49.476Z,99647.47
2023-04-28T00:47:21.075Z,99652.00
2023-04-28T00:49:52.417Z,99639.84
2023-04-28T00:52:22.076Z,99636.19
2023-04-28T00:54:52.867Z,99641.47
2023-04-28T00:57:25.544Z,99632.75
2023-04-28T00:59:55.297Z,99630.34
2023-04-28T01:02:25.426Z,99633.56
2023-04-28T01:04:56.531Z,99625.16
2023-04-28T01:07:26.615Z,99627.81
2023-04-28T01:09:56.346Z,99631.94
2023-04-28T01:12:33.461Z,99625.13
2023-04-28T01:15:03.333Z,99625.06
2023-04-28T01:17:34.545Z,99622.56
2023-04-28T01:20:04.781Z,99613.28
2023-04-28T01:22:34.578Z,99613.72
2023-04-28T01:25:07.281Z,99621.91
2023-04-28T01:27:37.302Z,99614.72
2023-04-28T01:30:08.214Z,99604.75
2023-04-28T01:32:37.943Z,99604.53
2023-04-28T01:35:09.060Z,99598.94
2023-04-28T01:37:39.448Z,99604.69
2023-04-28T01:40:12.966Z,99606.63
2023-04-28T01:42:42.868Z,99595.91
2023-04-28T01:45:13.937Z,99597.88
2023-04-28T01:47:44.039Z,99594.34
2023-04-28T01:50:14.320Z,99585.81
2023-04-28T01:52:43.964Z,99583.41
2023-04-28T01:55:16.268Z,99582.59
2023-04-28T01:57:46.263Z,99590.41
2023-04-28T02:00:17.323Z,99586.44
2023-04-28T02:02:51.971Z,99574.69
2023-04-28T02:05:21.802Z,99570.47
2023-04-28T02:07:53.156Z,99571.78
2023-04-28T02:10:25.992Z,99580.97
2023-04-28T02:12:55.771Z,99575.84
2023-04-28T02:15:25.471Z,99576.13
2023-04-28T02:17:56.528Z,99564.09
2023-04-28T02:20:26.477Z,99571.91
2023-04-28T02:22:57.544Z,99568.16
2023-04-28T02:25:31.226Z,99569.84
2023-04-28T02:28:00.936Z,99566.59
2023-04-28T02:30:30.671Z,99566.41
2023-04-28T02:33:00.407Z,99564.31
2023-04-28T02:35:30.159Z,99562.97
2023-04-28T02:37:59.879Z,99550.97
2023-04-28T02:40:32.221Z,99539.13
2023-04-28T02:43:02.354Z,99533.28
2023-04-28T02:45:32.382Z,99527.94
2023-04-28T02:48:03.821Z,99528.41
2023-04-28T02:50:33.849Z,99522.91
2023-04-28T02:53:03.600Z,99514.00
2023-04-28T02:55:35.867Z,99514.59
2023-04-28T02:58:05.550Z,99514.00
2023-04-28T03:00:35.511Z,99515.59
2023-04-28T03:03:05.425Z,99520.72
2023-04-28T03:05:35.295Z,99503.03
2023-04-28T03:08:05.070Z,99499.31
2023-04-28T03:10:37.306Z,99493.44
2023-04-28T03:13:07.960Z,99493.91
2023-04-28T03:15:37.928Z,99490.66
2023-04-28T03:18:07.789Z,99481.38
2023-04-28T03:20:37.780Z,99478.81
2023-04-28T03:23:07.671Z,99478.09
2023-04-28T03:25:40.563Z,99480.91
2023-04-28T03:28:10.922Z,99476.50
2023-04-28T03:30:40.706Z,99473.22
2023-04-28T03:33:12.974Z,99470.28
2023-04-28T03:35:43.406Z,99468.78
2023-04-28T03:38:13.267Z,99475.59
2023-04-28T03:40:46.453Z,99475.34
2023-04-28T03:43:42.052Z,99466.31
2023-04-28T03:46:17.821Z,99456.72
2023-04-28T03:48:48.407Z,99456.56
2023-04-28T03:51:18.167Z,99458.13
2023-04-28T03:53:48.248Z,99459.59
2023-04-28T03:56:20.897Z,99448.47
2023-04-28T03:58:50.658Z,99457.59
2023-04-28T04:01:20.585Z,99457.44
2023-04-28T04:03:51.625Z,99445.47
2023-04-28T04:06:21.834Z,99453.13
2023-04-28T04:08:51.959Z,99443.91
2023-04-28T04:11:24.264Z,99452.19
2023-04-28T04:13:54.285Z,99450.72
2023-04-28T04:16:27.054Z,99448.75
2023-04-28T04:18:58.938Z,99449.97
2023-04-28T04:21:37.708Z,99454.50
2023-04-28T04:24:08.140Z,99452.94
2023-04-28T04:26:40.584Z,99449.41
2023-04-28T04:29:27.054Z,99454.91
2023-04-28T04:31:57.102Z,99451.09
2023-04-28T04:34:26.953Z,99444.16
2023-04-28T04:36:56.789Z,99446.25
2023-04-28T04:39:27.146Z,99447.88
2023-04-28T04:42:00.744Z,99440.06
2023-04-28T04:44:43.290Z,99439.53
2023-04-28T04:47:20.447Z,99438.16
2023-04-28T04:49:50.923Z,99430.16
2023-04-28T04:52:21.685Z,99425.00
2023-04-28T04:54:51.536Z,99405.66
2023-04-28T04:57:24.396Z,99404.06
2023-04-28T05:00:23.775Z,99395.47
2023-04-28T05:02:55.462Z,99402.47
2023-04-28T05:05:25.599Z,99394.78
2023-04-28T05:08:18.716Z,99397.28
2023-04-28T05:10:48.661Z,99395.78
2023-04-28T05:13:21.272Z,99396.69
2023-04-28T05:15:55.192Z,99386.53
2023-04-28T05:18:33.267Z,99384.41
2023-04-28T05:21:03.112Z,99390.56
2023-04-28T05:23:32.911Z,99388.22
2023-04-28T05:26:04.210Z,99392.72
2023-04-28T05:28:37.047Z,99392.50
2023-04-28T05:31:07.408Z,99388.09
2023-04-28T05:33:37.460Z,99392.75
2023-04-28T05:36:08.658Z,99386.91
2023-04-28T05:38:39.268Z,99383.59
2023-04-28T05:41:09.296Z,99391.06
2023-04-28T05:43:41.603Z,99391.66
2023-04-28T05:46:28.272Z,99381.13
2023-04-28T05:49:00.870Z,99380.19
2023-04-28T05:51:35.809Z,99378.75
2023-04-28T05:54:05.948Z,99372.50
2023-04-28T05:56:41.024Z,99371.75
2023-04-28T05:59:14.770Z,99371.25
2023-04-28T06:01:44.724Z,99377.13
2023-04-28T06:04:14.841Z,99365.91
2023-04-28T06:06:44.985Z,99365.06
2023-04-28T06:09:14.937Z,99365.28
2023-04-28T06:11:44.855Z,99359.47
2023-04-28T06:14:17.381Z,99349.34
2023-04-28T06:16:47.373Z,99357.16
2023-04-28T06:19:19.043Z,99359.06
2023-04-28T06:21:50.526Z,99354.34
2023-04-28T06:24:20.237Z,99348.22
2023-04-28T06:26:50.753Z,99341.34
2023-04-28T06:29:24.185Z,99348.69
2023-04-28T06:31:57.813Z,99351.09
2023-04-28T06:34:31.094Z,99347.72
2023-04-28T06:37:01.760Z,99343.25
2023-04-28T06:39:31.900Z,99346.13
2023-04-28T06:42:02.425Z,99349.66
2023-04-28T06:44:36.523Z,99347.97
2023-04-28T06:47:06.929Z,99340.84
2023-04-28T06:49:36.743Z,99330.63
2023-04-28T06:52:08.017Z,99332.03
2023-04-28T06:54:38.714Z,99316.25
2023-04-28T06:57:11.595Z,99311.25
2023-04-28T06:59:44.277Z,99307.72
2023-04-28T07:02:14.291Z,99294.50
2023-04-28T07:04:43.966Z,99302.72
2023-04-28T07:07:14.224Z,99295.38
2023-04-28T07:09:44.784Z,99301.66
2023-04-28T07:12:14.526Z,99305.19
2023-04-28T07:14:47.166Z,99302.72
2023-04-28T07:17:17.389Z,99307.63
2023-04-28T07:19:47.123Z,99314.75
2023-04-28T07:22:16.780Z,99292.81
2023-04-28T07:24:46.513Z,99309.56
2023-04-28T07:27:16.314Z,99304.16
2023-04-28T07:29:48.697Z,99304.66
2023-04-28T07:32:18.684Z,99300.56
2023-04-28T07:34:48.361Z,99296.69
2023-04-28T07:37:18.090Z,99294.81
2023-04-28T07:39:48.020Z,99291.97
2023-04-28T07:42:19.207Z,99279.84
2023-04-28T07:44:51.971Z,99274.31
2023-04-28T07:47:21.728Z,99278.22
2023-04-28T07:49:51.362Z,99267.69
2023-04-28T07:52:21.343Z,99267.13
2023-04-28T07:54:51.288Z,99287.19
2023-04-28T07:57:21.036Z,99283.00
2023-04-28T07:59:53.643Z,99280.19
2023-04-28T08:02:23.576Z,99269.53
2023-04-28T08:04:53.520Z,99274.19
2023-04-28T08:07:24.746Z,99276.38
2023-04-28T08:09:55.480Z,99287.06
2023-04-28T08:12:25.404Z,99273.84
2023-04-28T08:14:57.944Z,99266.16
2023-04-28T08:17:27.753Z,99265.28
2023-04-28T08:19:57.446Z,99267.88
2023-04-28T08:22:27.378Z,99263.88
2023-04-28T08:24:57.072Z,99270.38
2023-04-28T08:27:27.284Z,99266.38
2023-04-28T08:29:59.684Z,99272.00
2023-04-28T08:32:29.599Z,99271.13
2023-04-28T08:35:00.454Z,99267.31
2023-04-28T08:37:31.258Z,99265.03
2023-04-28T08:40:04.874Z,99276.06
2023-04-28T08:42:34.828Z,99256.97
2023-04-28T08:45:08.235Z,99259.16
2023-04-28T08:47:40.829Z,99257.78
2023-04-28T08:50:12.732Z,99248.09
2023-04-28T08:52:43.939Z,99250.19
2023-04-28T08:55:17.148Z,99258.38
2023-04-28T08:57:48.606Z,99248.88
2023-04-28T09:00:21.543Z,99238.94
2023-04-28T09:02:51.382Z,99247.63
2023-04-28T09:05:21.388Z,99228.84
2023-04-28T09:07:52.364Z,99228.88
2023-04-28T09:10:24.108Z,99238.09
2023-04-28T09:12:56.052Z,99234.13
2023-04-28T09:15:34.557Z,99226.66
2023-04-28T09:18:06.495Z,99236.00
2023-04-28T09:20:37.478Z,99226.09
2023-04-28T09:23:17.982Z,99235.97
2023-04-28T09:26:03.631Z,99236.53
2023-04-28T09:28:34.065Z,99227.47
2023-04-28T09:31:06.769Z,99234.53
2023-04-28T09:33:36.528Z,99231.03
2023-04-28T09:36:06.664Z,99226.09
2023-04-28T09:38:46.790Z,99224.97
2023-04-28T09:41:16.751Z,99227.09
2023-04-28T09:43:46.460Z,99222.50
2023-04-28T09:46:31.986Z,99226.13
2023-04-28T09:49:04.666Z,99218.19
2023-04-28T09:51:34.792Z,99214.88
2023-04-28T09:54:05.439Z,99218.97
2023-04-28T09:56:41.188Z,99226.09
2023-04-28T09:59:11.059Z,99225.44
2023-04-28T10:01:44.296Z,99220.53
2023-04-28T10:04:14.803Z,99218.34
2023-04-28T10:06:45.853Z,99213.69
2023-04-28T10:09:16.762Z,99219.38
2023-04-28T10:11:47.435Z,99215.63
2023-04-28T10:14:17.360Z,99212.56
2023-04-28T10:16:52.168Z,99212.81
2023-04-28T10:19:22.037Z,99205.19
2023-04-28T10:22:07.616Z,99199.81
2023-04-28T10:24:56.682Z,99195.97
2023-04-28T10:27:33.216Z,99191.59
2023-04-28T10:30:27.294Z,99195.69
2023-04-28T10:33:28.861Z,99190.19
2023-04-28T10:36:01.552Z,99195.97
2023-04-28T10:38:31.441Z,99192.69
2023-04-28T10:41:03.559Z,99196.25
2023-04-28T10:43:39.698Z,99195.88
2023-04-28T10:46:11.645Z,99192.69
2023-04-28T10:48:58.454Z,99190.47
2023-04-28T10:51:35.203Z,99201.88
2023-04-28T10:54:12.192Z,99186.03
2023-04-28T10:56:42.240Z,99187.72
2023-04-28T10:59:30.441Z,99186.09
2023-04-28T11:02:51.706Z,99181.44
2023-04-28T11:05:23.647Z,99184.44
2023-04-28T11:08:35.544Z,99174.34
2023-04-28T11:11:21.853Z,99178.97
2023-04-28T11:13:52.123Z,99177.34
2023-04-28T11:16:24.986Z,99178.44
2023-04-28T11:19:03.697Z,99182.84
2023-04-28T11:21:34.539Z,99184.97
2023-04-28T11:24:11.251Z,99186.06
2023-04-28T11:26:44.045Z,99184.94
2023-04-28T11:29:15.344Z,99181.94
2023-04-28T11:31:52.242Z,99190.75
2023-04-28T11:34:23.465Z,99188.28
2023-04-28T11:36:54.659Z,99171.31
2023-04-28T11:39:29.532Z,99172.97
2023-04-28T11:42:03.144Z,99175.13
2023-04-28T11:44:34.165Z,99178.69
2023-04-28T11:47:06.117Z,99174.03
2023-04-28T11:49:45.808Z,99171.59
2023-04-28T11:52:16.753Z,99161.47
2023-04-28T11:54:46.493Z,99159.25
2023-04-28T11:57:25.706Z,99168.03
2023-04-28T11:59:55.477Z,99159.75
2023-04-28T12:02:30.914Z,99154.50
2023-04-28T12:05:09.246Z,99147.28
2023-04-28T12:07:44.723Z,99147.34
2023-04-28T12:10:16.194Z,99146.63
2023-04-28T12:12:52.714Z,99137.31
2023-04-28T12:15:25.552Z,99134.91
2023-04-28T12:17:55.350Z,99139.28
2023-04-28T12:20:39.752Z,99138.34
2023-04-28T12:23:09.666Z,99147.72
2023-04-28T12:25:48.514Z,99137.06
2023-04-28T12:28:20.899Z,99134.56
2023-04-28T12:30:51.188Z,99131.97
2023-04-28T12:33:27.841Z,99122.56
2023-04-28T12:35:59.092Z,99120.13
2023-04-28T12:38:29.423Z,99122.72
2023-04-28T12:41:00.617Z,99128.53
2023-04-28T12:43:33.768Z,99130.75
2023-04-28T12:46:04.280Z,99134.81
2023-04-28T12:48:35.384Z,99136.69
2023-04-28T12:51:05.137Z,99135.16
2023-04-28T12:53:34.935Z,99128.25
2023-04-28T12:56:04.698Z,99120.00
2023-04-28T12:58:37.441Z,99116.41
2023-04-28T13:01:07.283Z,99110.84
2023-04-28T13:03:39.331Z,99120.53
2023-04-28T13:06:10.953Z,99119.00
2023-04-28T13:08:40.977Z,99122.78
2023-04-28T13:11:21.873Z,99122.94
2023-04-28T13:13:57.103Z,99121.34
2023-04-28T13:16:29.151Z,99137.03
2023-04-28T13:18:59.564Z,99130.75
2023-04-28T13:21:29.428Z,99134.31
2023-04-28T13:23:59.515Z,99138.31
2023-04-28T13:26:29.274Z,99134.81
2023-04-28T13:29:02.422Z,99139.28
2023-04-28T13:31:32.701Z,99137.78
2023-04-28T13:34:04.260Z,99127.94
2023-04-28T13:36:35.279Z,99133.50
2023-04-28T13:39:06.438Z,99139.50
2023-04-28T13:41:37.026Z,99129.59
2023-04-28T13:44:09.471Z,99130.69
2023-04-28T13:46:39.216Z,99132.38
2023-04-28T13:49:09.051Z,99134.28
2023-04-28T13:51:39.109Z,99127.97
2023-04-28T13:54:10.732Z,99135.13
2023-04-28T13:56:40.840Z,99132.41
2023-04-28T13:59:13.259Z,99131.31
2023-04-28T14:01:43.243Z,99126.84
2023-04-28T14:04:13.294Z,99124.97
2023-04-28T14:06:43.158Z,99116.94
2023-04-28T14:09:12.968Z,99115.41
2023-04-28T14:11:42.627Z,99119.25
2023-04-28T14:14:14.985Z,99122.50
2023-04-28T14:16:46.087Z,99119.78
2023-04-28T14:19:17.679Z,99122.53
2023-04-28T14:21:48.052Z,99123.03
2023-04-28T14:24:18.675Z,99122.50
2023-04-28T14:26:49.718Z,99111.53
2023-04-28T14:29:21.962Z,99112.84
2023-04-28T14:31:51.782Z,99105.72
2023-04-28T14:34:21.850Z,99106.25
2023-04-28T14:36:51.899Z,99091.28
2023-04-28T14:39:22.946Z,99088.31
2023-04-28T14:41:52.837Z,99080.03
2023-04-28T14:44:25.112Z,99075.88
2023-04-28T14:46:54.915Z,99072.44
2023-04-28T14:49:24.818Z,99071.50
2023-04-28T14:51:54.788Z,99066.41
2023-04-28T14:54:24.748Z,99069.91
2023-04-28T14:56:54.441Z,99064.75
2023-04-28T14:59:27.049Z,99054.88
2023-04-28T15:01:56.839Z,99054.19
2023-04-28T15:04:31.058Z,99058.91
2023-04-28T15:07:01.346Z,99050.47
2023-04-28T15:09:31.360Z,99058.09
2023-04-28T15:12:01.206Z,99058.09
2023-04-28T15:14:33.710Z,99040.81
2023-04-28T15:17:04.207Z,99035.03
2023-04-28T15:19:35.183Z,99037.63
2023-04-28T15:22:05.303Z,99035.69
2023-04-28T15:24:35.205Z,99030.00
2023-04-28T15:27:05.758Z,99030.16
2023-04-28T15:29:38.808Z,99040.53
2023-04-28T15:32:09.074Z,99033.91
2023-04-28T15:34:39.095Z,99031.06
2023-04-28T15:37:33.200Z,99041.69
2023-04-28T15:40:03.353Z,99039.00
2023-04-28T15:42:35.886Z,99030.91
2023-04-28T15:45:10.536Z,99029.66
2023-04-28T15:47:41.523Z,99034.69
2023-04-28T15:50:12.965Z,99037.59
2023-04-28T15:52:46.124Z,99036.31
2023-04-28T15:55:17.086Z,99040.91
2023-04-28T15:57:47.141Z,99037.94
2023-04-28T16:00:19.713Z,99036.88
2023-04-28T16:02:49.492Z,99036.78
2023-04-28T16:05:19.417Z,99042.63
2023-04-28T16:07:50.068Z,99043.91
2023-04-28T16:10:19.796Z,99044.44
2023-04-28T16:12:49.515Z,99043.03
2023-04-28T16:15:21.796Z,99043.84
2023-04-28T16:17:52.451Z,99050.97
2023-04-28T16:20:22.563Z,99059.16
2023-04-28T16:22:52.357Z,99050.84
2023-04-28T16:25:22.123Z,99050.09
2023-04-28T16:27:51.934Z,99043.34
2023-04-28T16:30:24.394Z,99048.63
2023-04-28T16:32:54.614Z,99043.53
2023-04-28T16:35:24.625Z,99035.94
2023-04-28T16:37:54.464Z,99041.88
2023-04-28T16:40:24.159Z,99052.19
2023-04-28T16:42:54.086Z,99049.88
2023-04-28T16:45:26.593Z,99041.53
2023-04-28T16:47:56.345Z,99041.34
2023-04-28T16:50:26.171Z,99030.72
2023-04-28T16:52:55.921Z,99030.56
2023-04-28T16:55:26.362Z,99028.66
2023-04-28T16:57:56.136Z,99023.91
2023-04-28T17:00:28.696Z,99020.72
2023-04-28T17:02:58.481Z,99018.13
2023-04-28T17:05:28.666Z,98995.63
2023-04-28T17:07:58.713Z,99002.00
2023-04-28T17:10:28.718Z,99006.28
2023-04-28T17:12:58.612Z,98993.47
2023-04-28T17:15:31.332Z,98989.41
2023-04-28T17:18:02.096Z,98990.34
2023-04-28T17:20:31.912Z,98988.25
2023-04-28T17:23:01.578Z,98979.81
2023-04-28T17:25:31.327Z,98972.97
2023-04-28T17:28:03.493Z,98976.84
2023-04-28T17:30:37.909Z,98970.75
2023-04-28T17:33:08.244Z,98977.16
2023-04-28T17:35:39.896Z,98966.41
2023-04-28T17:38:09.628Z,98975.16
2023-04-28T17:40:39.551Z,98968.47
2023-04-28T17:43:09.492Z,98959.72
2023-04-28T17:45:41.811Z,98962.25
2023-04-28T17:48:12.652Z,98959.09
2023-04-28T17:50:42.739Z,98963.97
2023-04-28T17:53:12.706Z,98964.03
2023-04-28T17:55:43.111Z,98971.56
2023-04-28T17:58:13.006Z,98975.03
2023-04-28T18:00:45.798Z,98965.91
2023-04-28T18:03:15.716Z,98976.72
2023-04-28T18:05:45.483Z,98979.13
2023-04-28T18:08:15.361Z,98973.47
2023-04-28T18:10:45.010Z,98976.63
2023-04-28T18:13:14.797Z,98975.38
2023-04-28T18:15:47.960Z,98961.47
2023-04-28T18:18:17.621Z,98958.72
2023-04-28T18:20:47.714Z,98964.28
2023-04-28T18:23:17.382Z,98965.78
2023-04-28T18:25:47.082Z,98964.63
2023-04-28T18:28:16.796Z,98973.22
2023-04-28T18:30:46.349Z,98961.09
2023-04-28T18:33:19.447Z,98963.47
2023-04-28T18:35:51.045Z,98972.44
2023-04-28T18:38:20.696Z,98989.50
2023-04-28T18:40:50.365Z,98972.72
2023-04-28T18:43:20.118Z,98969.59
2023-04-28T18:45:53.044Z,98985.03
2023-04-28T18:48:23.091Z,98984.44
2023-04-28T18:50:54.013Z,98990.84
2023-04-28T18:53:23.739Z,98992.84
2023-04-28T18:55:58.109Z,98986.88
2023-04-28T18:58:27.990Z,98981.78
2023-04-28T19:01:00.366Z,98975.44
2023-04-28T19:03:31.763Z,98976.78
2023-04-28T19:06:01.644Z,98969.03
2023-04-28T19:08:32.191Z,98967.97
2023-04-28T19:11:02.218Z,98971.59
2023-04-28T19:13:31.960Z,98974.44
2023-04-28T19:16:04.395Z,98983.03
2023-04-28T19:18:34.810Z,98987.75
2023-04-28T19:21:05.594Z,98968.91
2023-04-28T19:23:35.522Z,98962.03
2023-04-28T19:26:05.263Z,98963.72
2023-04-28T19:28:35.008Z,98977.09
2023-04-28T19:31:07.284Z,98990.47
2023-04-28T19:33:37.047Z,98990.09
2023-04-28T19:36:09.923Z,99002.53
2023-04-28T19:38:40.453Z,99006.00
2023-04-28T19:41:10.325Z,99008.84
2023-04-28T19:43:40.069Z,99018.38
2023-04-28T19:46:13.221Z,99005.91
2023-04-28T19:48:44.596Z,99002.63
2023-04-28T19:51:14.567Z,99009.16
2023-04-28T19:53:46.558Z,99008.25
2023-04-28T19:56:16.283Z,98999.72
2023-04-28T19:58:45.993Z,98991.38
2023-04-28T20:01:18.857Z,98984.38
2023-04-28T20:03:48.808Z,98986.16
2023-04-28T20:06:19.364Z,99001.28
2023-04-28T20:08:49.342Z,98996.63
2023-04-28T20:11:19.768Z,99013.53
2023-04-28T20:13:49.592Z,99019.25
2023-04-28T20:16:22.699Z,99003.63
2023-04-28T20:18:52.478Z,99010.56
2023-04-28T20:21:23.123Z,99003.63
2023-04-28T20:23:53.118Z,99000.41
2023-04-28T20:26:23.614Z,99011.50
2023-04-28T20:28:54.304Z,99007.81
2023-04-28T20:31:26.747Z,98992.06
2023-04-28T20:33:56.647Z,98987.41
2023-04-28T20:36:27.521Z,98989.66
2023-04-28T20:38:57.317Z,98988.13
2023-04-28T20:41:26.985Z,99001.00
2023-04-28T20:43:56.759Z,99005.16
2023-04-28T20:46:29.024Z,99004.88
2023-04-28T20:48:59.684Z,99021.19
2023-04-28T20:51:30.005Z,99010.84
2023-04-28T20:54:00.160Z,99004.97
2023-04-28T20:56:30.050Z,99002.91
2023-04-28T20:58:59.803Z,98994.16
2023-04-28T21:01:32.219Z,98985.34
2023-04-28T21:04:02.260Z,98999.59
2023-04-28T21:06:32.062Z,99002.22
2023-04-28T21:09:01.782Z,98988.34
2023-04-28T21:11:31.457Z,98998.28
2023-04-28T21:14:01.381Z,99005.84
2023-04-28T21:16:33.681Z,98992.75
2023-04-28T21:19:03.554Z,98996.97
2023-04-28T21:21:33.971Z,98989.56
2023-04-28T21:24:03.632Z,98976.16
2023-04-28T21:26:33.291Z,98976.16
2023-04-28T21:29:03.018Z,98977.03
2023-04-28T21:31:35.349Z,98982.28
2023-04-28T21:34:05.361Z,98977.16
2023-04-28T21:36:35.314Z,98964.34
2023-04-28T21:39:06.292Z,98962.59
2023-04-28T21:41:36.457Z,98972.97
2023-04-28T21:44:06.203Z,98965.56
2023-04-28T21:46:39.279Z,98959.91
2023-04-28T21:49:08.939Z,98956.41
2023-04-28T21:51:42.276Z,98960.72
2023-04-28T21:54:12.536Z,98958.69
2023-04-28T21:56:42.203Z,98970.66
2023-04-28T21:59:11.930Z,98959.63
2023-04-28T22:01:44.498Z,98960.75
2023-04-28T22:04:15.347Z,98967.38
2023-04-28T22:06:45.384Z,98965.97
2023-04-28T22:09:15.574Z,98956.28
2023-04-28T22:11:45.380Z,98950.56
2023-04-28T22:14:30.531Z,98949.03
2023-04-28T22:17:07.362Z,98945.44
2023-04-28T22:19:37.015Z,98946.28
2023-04-28T22:22:07.127Z,98942.41
2023-04-28T22:24:37.263Z,98939.34
2023-04-28T22:27:07.203Z,98940.47
2023-04-28T22:29:36.990Z,98941.47
2023-04-28T22:32:10.105Z,98943.00
2023-04-28T22:34:40.108Z,98938.97
2023-04-28T22:37:10.640Z,98938.91
2023-04-28T22:39:40.289Z,98945.09
2023-04-28T22:42:10.200Z,98951.41
2023-04-28T22:44:40.090Z,98944.53
2023-04-28T22:47:12.430Z,98957.78
2023-04-28T22:49:42.736Z,98958.22
2023-04-28T22:52:12.548Z,98955.03
2023-04-28T22:54:42.216Z,98972.91
2023-04-28T22:57:11.869Z,98972.59
2023-04-28T22:59:42.128Z,98976.44
2023-04-28T23:02:14.710Z,98991.19
2023-04-28T23:04:44.554Z,98986.50
2023-04-28T23:07:14.425Z,98994.28
2023-04-28T23:09:44.091Z,99003.56
2023-04-28T23:12:13.782Z,99012.78
2023-04-28T23:14:43.471Z,99018.47
2023-04-28T23:17:15.677Z,99022.38
2023-04-28T23:19:45.322Z,99024.75
2023-04-28T23:22:15.061Z,99031.00
2023-04-28T23:24:47.194Z,99033.56
2023-04-28T23:27:16.855Z,99028.97
2023-04-28T23:29:46.490Z,99018.38
2023-04-28T23:32:18.762Z,99015.50
2023-04-28T23:34:48.970Z,99014.22
2023-04-28T23:37:18.604Z,99017.25
2023-04-28T23:39:48.262Z,99009.22
2023-04-28T23:42:18.105Z,99001.44
2023-04-28T23:44:47.776Z,99010.59
2023-04-28T23:47:20.070Z,99007.91
2023-04-28T23:49:50.096Z,99004.31
2023-04-28T23:52:20.047Z,99018.19
2023-04-28T23:54:49.792Z,99005.00
2023-04-28T23:57:19.486Z,99005.34
2023-04-28T23:59:49.248Z,98997.78
